Station info - map view · info · telemetry · weather · raw · status · beacons · messages · bulletins · browse · moving · my account
Callsign, ship name or locator: Clear       
It is possible to search using wildcards (*?) after a prefix. Example: OH*
APRS station N8ADO-9 - show graphs
Map loading...
Mic-E message: In service
Last beacon: N8ADO/R
Location: 39°47.78' N 84°03.30' W - locator EM79XT31JC - show map - static map
3.8 miles East bearing 73° from Riverside, Montgomery County, Ohio, United States [?]
7.7 miles East bearing 70° from Dayton, Montgomery County, Ohio, United States
48.8 miles Northeast bearing 26° from Cincinnati, Hamilton County, Ohio, United States
57.1 miles West bearing 259° from Columbus, Franklin County, Ohio, United States
Last position: 2018-09-17 11:55:46 EDT (4d 23h19m ago)
2018-09-17 11:55:46 EDT local time at Riverside, United States [?]
Altitude: 810 ft
Course: 123°
Device: Kenwood: TM-D700 (rig)
Last path: N8ADO-9>S9TW7X via KI6SZ-2,WIDE1,KY4KY-3,WIDE2*,qAR,KF4ERV-10 (good)
Positions stored: 3999
Other SSIDs: N8ADO-10 N8ADO-14 N8ADO-2
APRS digipeater – Statistics for 2018-09:
Stations heard directly: 18 on radio path – show map
Last heard a station directly: 2018-09-15 14:46:03 EDT (6d 20h29m ago)
Position packets heard directly: 102 on radio path
Stations near current position of N8ADO-9 - show more
callsign distance last heard - EDT      callsign distance last heard - EDT
N8ADO-265.5 yards 107°2018-09-15 08:54:37 N8PPX0.7 miles 127°2018-09-02 17:33:43
N8UDQ-10.8 miles 95°2018-09-19 09:15:30 KA8ZKR-21.0 miles 179°2018-09-11 16:20:48
KC8GLE1.1 miles 177°2018-09-14 20:00:12 AB0DE-91.3 miles 181°2018-09-13 21:48:29
KB8GUI1.7 miles 128°2018-09-21 14:51:16 KB8ML-141.7 miles 215°2018-08-30 17:39:36
W8RDZ1.9 miles 74°2018-09-02 18:57:07 KC7EHJ-91.9 miles 28°2018-09-15 13:35:10
KC7EHJ-131.9 miles 28°2018-09-13 16:13:34 KD8RFI-21.9 miles 29°2018-09-14 17:01:51
KD8RFI-11.9 miles 29°2018-09-14 17:01:56 KD8RFI-31.9 miles 28°2018-09-14 16:58:12
W1LOL-12.1 miles 197°2018-09-20 18:01:21 N9UDE-92.3 miles 103°2018-08-23 16:44:55
KI6SZ-22.5 miles 320°2018-09-22 11:14:42 W8LCZ-12.6 miles 35°2018-09-22 11:14:02
KC8GLE-52.6 miles 255°2018-09-17 11:55:49 W8BI-32.6 miles 247°2018-09-17 11:55:46
Stations which heard N8ADO-9 directly on radio –
callsign pkts first heard - EDT last heard longest (tx => rx) longest at - EDT
WA8ZWJ-1 4 2018-09-15 12:32:36 2018-09-15 13:02:20 EM79XS > EM79TV 17.5 miles 299° 2018-09-15 12:32:36
W8BLV 4 2018-09-15 07:42:46 2018-09-15 14:08:14 EM79XT > EM79TM 25.1 miles 220° 2018-09-15 07:42:46
KI6SZ-2 170 2018-09-15 04:58:46 2018-09-17 11:55:46 EM79XQ > EM79WT 9.0 miles 357° 2018-09-15 15:12:13
W8VFR-3 19 2018-09-15 13:19:45 2018-09-15 14:51:21 EM79WT > EM79TP 18.1 miles 232° 2018-09-15 13:19:45
W8VFR-4 1 2018-09-15 13:19:48 2018-09-15 13:19:48 EM79WT > EM79TR 16.7 miles 258° 2018-09-15 13:19:48
KC8OKU-9 7 2018-09-15 12:55:57 2018-09-15 14:10:26 EM79XT > EM79XT 1.3 miles 63° 2018-09-15 12:58:18
KC7EHJ-9 5 2018-09-15 12:33:46 2018-09-15 13:41:22 EM79WS > EM79XT 4.0 miles 58° 2018-09-15 13:41:22
KE0JMK-2 59 2018-09-15 04:58:45 2018-09-15 15:11:39 EM79XT > EM79WR 7.2 miles 218° 2018-09-15 07:42:46
KM8EMA-13 22 2018-09-15 12:00:34 2018-09-15 13:45:37 EM79XT > EM79WS 2.9 miles 256° 2018-09-15 12:00:34
N8UDQ-1 56 2018-09-15 05:09:10 2018-09-15 12:52:32 EM79XS > EM79XT 1.4 miles 79° 2018-09-15 12:52:32
W8XRN-15 14 2018-09-15 06:30:46 2018-09-15 11:06:18 EM79XT > EM79XU 3.3 miles 31° 2018-09-15 11:06:18

Only position packets which were originated by the station are shown here. The range statistics show some extra long hops, because some digipeaters do not correctly add themselves to the digipeater path. Please check the raw packets.
Stations heard directly by N8ADO-9
callsign pkts first heard - EDT last heard longest (rx => tx) longest at - EDT
KA0AZS-9 1 2018-09-15 14:33:26 2018-09-15 14:33:26 EM79WR > EM79WS 2.8 miles 197° 2018-09-15 14:33:26
KM8EMA-1 3 2018-09-15 08:46:02 2018-09-15 09:24:26 EM79XS > EM79XT 0.6 miles 234° 2018-09-15 09:24:26
KM8EMA-4 1 2018-09-15 07:38:55 2018-09-15 07:38:55 EM79WT > EM79XT 1.6 miles 270° 2018-09-15 07:38:55
KC8OKU-9 27 2018-09-15 07:37:04 2018-09-15 14:20:32 EM79XU > EM79XT 3.3 miles 31° 2018-09-15 11:55:12
KC7EHJ-9 1 2018-09-15 10:50:20 2018-09-15 10:50:20 EM79XT > EM79XT 1.9 miles 28° 2018-09-15 10:50:20
WX8P-1 1 2018-09-15 15:11:32 2018-09-15 15:11:32 EM79XQ > EM79WS 8.5 miles 149° 2018-09-15 15:11:32
WG8B 5 2018-09-15 08:30:15 2018-09-15 14:14:30 EM79XT > EM79XT 1.7 miles 46° 2018-09-15 09:21:47
KC8GLE-5 27 2018-09-15 13:36:10 2018-09-15 14:46:03 EM79WS > EM79WT 0.6 miles 219° 2018-09-15 13:36:10
W8LCZ-1 1 2018-09-15 11:55:15 2018-09-15 11:55:15 EM79XT > EM79XT 0.4 miles 12° 2018-09-15 11:55:15
W8GUC-9 8 2018-09-15 05:37:39 2018-09-15 10:50:17 EM79XU > EM79XT 3.5 miles 32° 2018-09-15 05:37:39
W8BI-1 6 2018-09-15 07:57:32 2018-09-15 09:32:34 EM79XT > EM79XT 1.5 miles 46° 2018-09-15 08:33:58
KM8EMA-13 1 2018-09-15 13:42:29 2018-09-15 13:42:29 EM79WS > EM79WS 0.4 miles 206° 2018-09-15 13:42:29
KD8ZLB 5 2018-09-15 08:48:44 2018-09-15 13:29:54 EM79XT > EM79WT 1.8 miles 88° 2018-09-15 13:24:46
W8BI-3 6 2018-09-15 07:41:18 2018-09-15 08:26:30 EM79XT > EM79XT 0.9 miles 45° 2018-09-15 07:45:18
N8ADO-2 3 2018-09-15 08:39:33 2018-09-15 08:54:51 EM79XT > EM79XT 65.5 yards 107° 2018-09-15 08:54:51
W8GUC-7 2 2018-09-15 09:25:19 2018-09-15 09:45:45 EM79XT > EM79XT 2.2 miles 355° 2018-09-15 09:45:45
KD0MPB-14 1 2018-09-15 14:20:56 2018-09-15 14:20:56 EM79WU > EM79WS 6.3 miles 336° 2018-09-15 14:20:56
W8XRN-15 3 2018-09-15 07:00:40 2018-09-15 10:50:17 EM79XU > EM79XT 3.3 miles 31° 2018-09-15 10:50:17

Only stations from which a position packet has been heard are shown here. The range statistics show some extra long hops, because some digipeaters do not correctly add themselves to the digipeater path. Please check the raw packets.
About this site
This page shows real-time information collected from the Automatic Position Reporting System Internet network (APRS-IS). APRS is used by amateur (ham) radio operators to transmit real-time position information, weather data, telemetry and messages over the radio. A vehicle equipped with a GPS receiver, a VHF transmitter or HF transceiver and a small computer device called a tracker transmits it's location, speed and course in a small data packet, which is then received by a nearby iGate receiving site which forwards the packet on the Internet. Systems connected to the Internet can send information on the APRS-IS without a radio transmitter, or collect and display information transmitted anywhere in the world.
FAQ · Blog · Discussion group · Linking to aprs.fi · AIS sites · Service status · Database statistics · Advertising on aprs.fi · Technical details · API · Change log · Planned changes · Credits and thanks · Terms Of Service · iPhone/iPad APRS